Accueil
METAR-TAF:

METAR-TAF

Aéroports :

Kraljevo, Serbie

latitude: 43-49-07N, longitude: 020-35-07E, altitude: 209 m

Observation

Le bulletin a été fait il y a 32 minutes, à 15:00 UTC
Vent 4 kt de nord-ouest, variant entre ouest/sud-ouest et nord
Température 24°C
Humidité 38%
Pression 1015 hPa
Visibilité 10 km ou plus
Quelques nuages à une hauteur de 6000 ft

METAR: LYKV 141500Z 31004KT 240V010 9999 FEW060 24/09 Q1015 NOSIG

Heure: 17:32 (15:32 UTC)

Prévision

Le bulletin a été fait il y a 4 heures et 32 minutes, à 11:00 UTC
Prévision valable du 14 à 12 UTC au 15 à 12 UTC
Vent 6 kt de ouest/nord-ouest
Visibilité 10 km ou plus
Nuages épars à une hauteur de 4700 ft
Temporairement
du 14 à 12 UTC au 14 à 15 UTC
Vent 16 kt de ouest/nord-ouest
Temporairement
du 15 à 01 UTC au 15 à 05 UTC
Visibilité: 3000 m
brume,

TAF: LYKV 141100Z 1412/1512 29006KT 9999 SCT047 TX26/1512Z TN09/1503Z TEMPO 1412/1415 29016KT TEMPO 1501/1505 3000 BR

Observations et prévisions météorologiques de plus de 4000 aéroports (messages METAR et TAF).

Les stations disponibles sont représentées par des disques jaunes et rouges sur la carte.

Passer la souris dessus pour voir le nom de la station.

Cliquer dessus pour voir les observations et prévisions météorologiques.

Pour changer de carte: cliquez sur les boutons verts avec une croix noire pour zoomer, sur le bouton vert avec un tiret pour effectuer un zoom arrière, ou sur les flèches vertes pour les cartes adjacentes.


METAR-TAF: